Time;durP1;ratioP1;P1;durP2;ratioP2;P2;SDS_P1;SDS_P2;PMS_P1;PMS_P2;Temp;Humidity;BMP_temperature;BMP_pressure;BME280_temperature;BME280_humidity;BME280_pressure;Samples;Min_cycle;Max_cycle;Signal;HPM_P1;HPM_P2
2022/02/14 00:00:34;;;;;;;8.30;7.50;;;;;21.60;99195.00;;;;2056141;28;20218;-76
2022/02/14 00:01:34;;;;;;;8.38;7.35;;;;;21.60;99187.00;;;;2067571;28;20596;-76
2022/02/14 00:02:35;;;;;;;8.50;7.50;;;;;21.60;99190.00;;;;2061652;28;20230;-76
2022/02/14 00:03:35;;;;;;;7.83;7.13;;;;;21.60;99182.00;;;;2059873;28;20230;-76
2022/02/14 00:04:36;;;;;;;8.00;7.20;;;;;21.60;99182.00;;;;2060259;28;20264;-76
2022/02/14 00:05:36;;;;;;;8.60;7.33;;;;;21.60;99181.00;;;;2060607;28;20219;-76
2022/02/14 00:06:36;;;;;;;9.40;7.33;;;;;21.60;99187.00;;;;2060089;28;20219;-76
2022/02/14 00:07:37;;;;;;;7.83;7.13;;;;;21.60;99183.00;;;;2052008;28;20227;-76
2022/02/14 00:08:37;;;;;;;9.30;6.80;;;;;21.60;99173.00;;;;2060032;28;20222;-76
2022/02/14 00:09:38;;;;;;;8.07;6.73;;;;;21.60;99168.00;;;;2060849;28;20716;-76
2022/02/14 00:10:38;;;;;;;7.67;6.83;;;;;21.60;99168.00;;;;2060684;28;20242;-76
2022/02/14 00:11:39;;;;;;;7.60;6.80;;;;;21.60;99157.00;;;;2060752;28;20219;-76
2022/02/14 00:12:42;;;;;;;6.90;6.30;;;;;21.60;99158.00;;;;2063010;28;20234;-76
2022/02/14 00:13:42;;;;;;;8.63;7.13;;;;;21.60;99160.00;;;;2063323;28;20219;-76
2022/02/14 00:14:43;;;;;;;7.93;6.47;;;;;21.60;99158.00;;;;2052316;28;20250;-76
2022/02/14 00:15:44;;;;;;;7.70;7.00;;;;;21.60;99167.00;;;;2059887;28;20211;-76
2022/02/14 00:16:45;;;;;;;6.73;6.03;;;;;21.50;99162.00;;;;2052827;28;20222;-76
2022/02/14 00:17:45;;;;;;;6.97;6.25;;;;;21.50;99162.00;;;;2060161;28;20211;-76
2022/02/14 00:18:45;;;;;;;7.90;6.47;;;;;21.50;99158.00;;;;2060587;28;20701;-76
2022/02/14 00:19:50;;;;;;;6.97;6.20;;;;;21.50;99147.00;;;;2059519;28;20250;-76
2022/02/14 00:20:50;;;;;;;7.38;6.00;;;;;21.50;99153.00;;;;2059854;28;20647;-76
2022/02/14 00:21:50;;;;;;;6.70;6.00;;;;;21.50;99159.00;;;;2057104;28;20211;-76
2022/02/14 00:22:51;;;;;;;7.27;5.97;;;;;21.50;99157.00;;;;2059763;28;20221;-75
2022/02/14 00:23:51;;;;;;;6.73;6.13;;;;;21.50;99147.00;;;;2059011;28;20219;-76
2022/02/14 00:24:55;;;;;;;6.60;5.93;;;;;21.50;99138.00;;;;2059416;28;20216;-76
2022/02/14 00:25:55;;;;;;;7.38;5.85;;;;;21.50;99143.00;;;;2056136;28;20236;-75
2022/02/14 00:26:56;;;;;;;6.70;6.00;;;;;21.50;99141.00;;;;2060141;28;20218;-76
2022/02/14 00:27:57;;;;;;;6.93;6.23;;;;;21.50;99146.00;;;;2059747;28;20217;-76
2022/02/14 00:28:57;;;;;;;7.10;5.90;;;;;21.50;99142.00;;;;2059389;28;21103;-76
2022/02/14 00:29:58;;;;;;;6.50;5.53;;;;;21.50;99132.00;;;;2059545;28;20219;-76
2022/02/14 00:30:58;;;;;;;6.33;5.67;;;;;21.50;99128.00;;;;2059574;28;20303;-76
2022/02/14 00:31:58;;;;;;;7.47;5.80;;;;;21.50;99133.00;;;;2059897;28;20243;-77
2022/02/14 00:32:59;;;;;;;7.63;5.70;;;;;21.50;99134.00;;;;2058218;28;20230;-77
2022/02/14 00:33:59;;;;;;;6.70;5.93;;;;;21.50;99138.00;;;;2066179;28;20215;-76
2022/02/14 00:34:59;;;;;;;5.83;5.23;;;;;21.50;99120.00;;;;2065667;28;20250;-76
2022/02/14 00:36:00;;;;;;;5.70;5.10;;;;;21.50;99120.00;;;;2064742;28;20207;-77
2022/02/14 00:37:00;;;;;;;6.37;5.77;;;;;21.50;99125.00;;;;2067634;28;20210;-76
2022/02/14 00:38:00;;;;;;;6.83;6.17;;;;;21.50;99115.00;;;;2066921;28;20214;-76
2022/02/14 00:39:01;;;;;;;5.50;5.00;;;;;21.40;99115.00;;;;2059901;28;20209;-77
2022/02/14 00:40:01;;;;;;;6.53;4.70;;;;;21.40;99123.00;;;;2059817;28;20207;-77
2022/02/14 00:41:02;;;;;;;6.10;5.50;;;;;21.40;99124.00;;;;2059507;28;20249;-77
2022/02/14 00:42:03;;;;;;;7.00;5.13;;;;;21.40;99124.00;;;;2059704;28;20207;-77
2022/02/14 00:43:04;;;;;;;5.10;4.60;;;;;21.40;99109.00;;;;2059659;28;20218;-77
2022/02/14 00:44:04;;;;;;;6.70;4.60;;;;;21.40;99104.00;;;;2061093;28;20712;-77
2022/02/14 00:45:05;;;;;;;4.90;4.50;;;;;21.40;99108.00;;;;2059293;28;20451;-77
2022/02/14 00:46:05;;;;;;;5.53;5.03;;;;;21.40;99117.00;;;;2059076;28;20210;-78
2022/02/14 00:47:06;;;;;;;5.93;5.00;;;;;21.40;99113.00;;;;2059372;28;20207;-75
2022/02/14 00:48:06;;;;;;;5.20;4.70;;;;;21.40;99117.00;;;;2059024;28;20266;-74
2022/02/14 00:49:07;;;;;;;6.47;4.83;;;;;21.40;99110.00;;;;2057214;28;20212;-75
2022/02/14 00:50:08;;;;;;;5.40;4.83;;;;;21.40;99110.00;;;;2059855;28;20303;-74
2022/02/14 00:51:08;;;;;;;6.10;4.25;;;;;21.40;99121.00;;;;2060000;28;20222;-75
2022/02/14 00:52:09;;;;;;;6.40;4.80;;;;;21.40;99110.00;;;;2060460;28;20208;-75
2022/02/14 00:53:09;;;;;;;5.97;4.33;;;;;21.40;99112.00;;;;2060436;28;20222;-75
2022/02/14 00:54:09;;;;;;;6.40;5.00;;;;;21.40;99097.00;;;;2057599;28;20246;-74
2022/02/14 00:55:10;;;;;;;4.73;4.33;;;;;21.40;99112.00;;;;2059742;28;20210;-74
2022/02/14 00:56:11;;;;;;;5.10;4.35;;;;;21.40;99111.00;;;;2059550;28;20943;-75
2022/02/14 00:57:11;;;;;;;6.73;4.10;;;;;21.40;99102.00;;;;2059501;28;20223;-74
2022/02/14 00:58:14;;;;;;;6.53;3.93;;;;;21.40;99105.00;;;;2059572;28;20223;-74
2022/02/14 00:59:14;;;;;;;4.53;4.10;;;;;21.40;99102.00;;;;2057402;28;20225;-75
2022/02/14 01:00:15;;;;;;;5.03;4.07;;;;;21.40;99097.00;;;;2059566;28;20564;-75
2022/02/14 01:01:15;;;;;;;4.77;4.37;;;;;21.40;99101.00;;;;2062319;28;20902;-75
2022/02/14 01:02:15;;;;;;;5.03;4.40;;;;;21.40;99099.00;;;;2059970;28;20223;-75
2022/02/14 01:03:16;;;;;;;4.40;4.00;;;;;21.40;99092.00;;;;2059864;28;20215;-75
2022/02/14 01:04:16;;;;;;;8.80;4.23;;;;;21.40;99106.00;;;;2057992;28;20208;-74
2022/02/14 01:05:16;;;;;;;4.70;4.30;;;;;21.40;99106.00;;;;2059749;28;20215;-75
2022/02/14 01:06:17;;;;;;;5.57;4.60;;;;;21.40;99099.00;;;;2059657;28;21157;-74
2022/02/14 01:07:17;;;;;;;4.90;4.10;;;;;21.40;99095.00;;;;2057932;28;20214;-75
2022/02/14 01:08:17;;;;;;;4.93;4.37;;;;;21.40;99088.00;;;;2058986;28;20754;-75
2022/02/14 01:09:18;;;;;;;5.60;4.50;;;;;21.40;99102.00;;;;2059557;28;20223;-74
2022/02/14 01:10:18;;;;;;;4.47;4.07;;;;;21.40;99089.00;;;;2059075;28;20215;-74
2022/02/14 01:11:18;;;;;;;3.90;3.60;;;;;21.40;99087.00;;;;2059961;28;20339;-74
2022/02/14 01:12:18;;;;;;;4.67;3.50;;;;;21.30;99093.00;;;;2061172;28;20300;-74
2022/02/14 01:13:19;;;;;;;4.07;3.67;;;;;21.30;99094.00;;;;2059918;28;20647;-74
2022/02/14 01:14:19;;;;;;;4.90;4.40;;;;;21.30;99076.00;;;;2057282;28;20554;-74
2022/02/14 01:15:19;;;;;;;4.90;3.60;;;;;21.30;99095.00;;;;2058516;28;20882;-74
2022/02/14 01:16:20;;;;;;;3.90;3.50;;;;;21.30;99095.00;;;;2059253;28;20203;-74
2022/02/14 01:17:21;;;;;;;6.30;3.97;;;;;21.30;99081.00;;;;2059220;28;20219;-75
2022/02/14 01:18:21;;;;;;;4.30;3.70;;;;;21.30;99090.00;;;;2058682;28;20236;-74
2022/02/14 01:19:22;;;;;;;5.33;4.17;;;;;21.30;99065.00;;;;2059422;28;20679;-75
2022/02/14 01:20:22;;;;;;;4.30;3.70;;;;;21.30;99087.00;;;;2060259;28;20263;-74
2022/02/14 01:21:22;;;;;;;3.80;3.30;;;;;21.30;99079.00;;;;2060064;28;20683;-74
2022/02/14 01:22:23;;;;;;;4.60;3.40;;;;;21.30;99083.00;;;;2060299;28;20729;-75
2022/02/14 01:23:23;;;;;;;5.67;3.83;;;;;21.30;99081.00;;;;2059966;28;20250;-74
2022/02/14 01:24:23;;;;;;;4.63;4.13;;;;;21.30;99065.00;;;;2056956;28;20219;-75
2022/02/14 01:25:24;;;;;;;3.93;3.10;;;;;21.30;99081.00;;;;2059187;28;20218;-74
2022/02/14 01:26:24;;;;;;;4.13;3.73;;;;;21.30;99069.00;;;;2058106;28;20234;-75
2022/02/14 01:27:24;;;;;;;5.77;3.87;;;;;21.30;99073.00;;;;2058507;28;20231;-75
2022/02/14 01:28:25;;;;;;;4.63;3.90;;;;;21.30;99084.00;;;;2059565;28;20298;-75
2022/02/14 01:29:25;;;;;;;5.27;4.00;;;;;21.30;99071.00;;;;2059802;28;20335;-75
2022/02/14 01:30:25;;;;;;;4.90;3.53;;;;;21.30;99083.00;;;;2050561;28;20243;-75
2022/02/14 01:31:26;;;;;;;4.00;3.53;;;;;21.30;99075.00;;;;2051004;28;20281;-75
2022/02/14 01:32:26;;;;;;;6.30;3.80;;;;;21.30;99074.00;;;;2058977;28;20282;-75
2022/02/14 01:33:26;;;;;;;4.57;3.33;;;;;21.30;99064.00;;;;2058571;28;20266;-75
2022/02/14 01:34:27;;;;;;;4.40;3.20;;;;;21.30;99068.00;;;;2057017;28;20215;-75
2022/02/14 01:35:27;;;;;;;3.17;2.87;;;;;21.30;99068.00;;;;2058160;28;20208;-75
2022/02/14 01:36:27;;;;;;;4.20;3.80;;;;;21.30;99064.00;;;;2061567;28;20290;-75
2022/02/14 01:37:28;;;;;;;3.70;3.40;;;;;21.30;99072.00;;;;2066235;28;20661;-74
2022/02/14 01:38:28;;;;;;;3.53;3.23;;;;;21.30;99064.00;;;;2058938;28;20215;-75
2022/02/14 01:39:29;;;;;;;3.63;3.33;;;;;21.30;99081.00;;;;2056454;28;20258;-75
2022/02/14 01:40:29;;;;;;;4.93;3.33;;;;;21.20;99070.00;;;;2058473;28;20223;-75
2022/02/14 01:41:29;;;;;;;4.00;3.60;;;;;21.30;99064.00;;;;2059591;28;20215;-75
2022/02/14 01:42:30;;;;;;;4.73;3.23;;;;;21.30;99057.00;;;;2059613;28;20266;-75
2022/02/14 01:43:30;;;;;;;4.93;3.20;;;;;21.20;99052.00;;;;2059261;28;20235;-75
2022/02/14 01:44:44;;;;;;;4.20;2.90;;;;;21.30;99051.00;;;;2059310;28;20223;-75
2022/02/14 01:45:45;;;;;;;3.83;3.30;;;;;21.20;99038.00;;;;2058274;28;20219;-75
2022/02/14 01:46:45;;;;;;;4.73;3.50;;;;;21.20;99043.00;;;;2057907;28;20219;-75
2022/02/14 01:47:45;;;;;;;5.67;3.57;;;;;21.20;99034.00;;;;2058705;28;20262;-75
2022/02/14 01:48:46;;;;;;;6.50;3.17;;;;;21.20;99040.00;;;;2059418;28;20222;-75
2022/02/14 01:49:47;;;;;;;3.40;3.10;;;;;21.20;99039.00;;;;2060154;28;20234;-75
2022/02/14 01:50:48;;;;;;;3.70;3.17;;;;;21.20;99030.00;;;;2059356;28;20215;-74
2022/02/14 01:51:48;;;;;;;5.20;3.13;;;;;21.20;99035.00;;;;2059212;28;20689;-75
2022/02/14 01:52:49;;;;;;;4.37;3.10;;;;;21.20;99033.00;;;;2059110;28;20226;-75
2022/02/14 01:53:49;;;;;;;3.50;3.17;;;;;21.20;99042.00;;;;2058570;28;20231;-75
2022/02/14 01:54:50;;;;;;;3.20;2.70;;;;;21.20;99041.00;;;;2058565;28;20745;-75
2022/02/14 01:55:51;;;;;;;5.60;3.07;;;;;21.20;99041.00;;;;2067121;28;20207;-75
2022/02/14 01:56:52;;;;;;;4.07;3.05;;;;;21.20;99026.00;;;;2059800;28;20208;-75
2022/02/14 01:57:52;;;;;;;4.67;3.23;;;;;21.20;99034.00;;;;2059622;28;20219;-75
2022/02/14 01:58:52;;;;;;;4.40;3.33;;;;;21.20;99021.00;;;;2059042;28;20242;-75
2022/02/14 01:59:53;;;;;;;3.27;2.90;;;;;21.20;99026.00;;;;2053265;28;20206;-74
2022/02/14 02:00:53;;;;;;;5.00;2.73;;;;;21.20;99026.00;;;;2058790;28;20210;-75
2022/02/14 02:01:53;;;;;;;5.23;3.00;;;;;21.20;99028.00;;;;2058973;28;20290;-75
2022/02/14 02:02:54;;;;;;;3.83;3.43;;;;;21.20;99022.00;;;;2059139;28;20207;-75
2022/02/14 02:03:54;;;;;;;4.30;3.20;;;;;21.20;99013.00;;;;2059542;28;20208;-75
2022/02/14 02:04:54;;;;;;;7.10;3.10;;;;;21.20;99017.00;;;;2059953;28;20235;-74
2022/02/14 02:05:55;;;;;;;3.90;3.03;;;;;21.20;99003.00;;;;2059992;28;20211;-75
2022/02/14 02:06:55;;;;;;;4.40;2.70;;;;;21.20;99008.00;;;;2051249;28;20338;-75
2022/02/14 02:07:56;;;;;;;4.50;2.93;;;;;21.20;98999.00;;;;2051115;28;20235;-75
2022/02/14 02:08:56;;;;;;;7.70;2.93;;;;;21.20;98988.00;;;;2058972;28;20199;-75
2022/02/14 02:09:56;;;;;;;3.73;3.00;;;;;21.10;98983.00;;;;2058366;28;20207;-75
2022/02/14 02:12:22;;;;;;;4.17;2.97;;;;;21.20;98984.00;;;;2050088;28;20236;-73
2022/02/14 02:12:23;;;;;;;4.93;3.15;;;;;21.20;99005.00;;;;2055993;28;20226;-73
2022/02/14 02:13:23;;;;;;;3.08;2.88;;;;;21.20;99000.00;;;;2056093;28;20226;-75
2022/02/14 02:14:24;;;;;;;3.20;2.40;;;;;21.10;99000.00;;;;2059003;28;20754;-75
2022/02/14 02:15:24;;;;;;;3.10;2.80;;;;;21.10;98989.00;;;;2059107;28;20714;-75
2022/02/14 02:16:25;;;;;;;3.93;2.70;;;;;21.10;98992.00;;;;2057936;28;20611;-75
2022/02/14 02:17:33;;;;;;;5.23;2.73;;;;;21.10;98984.00;;;;2058930;28;20215;-75
2022/02/14 02:18:33;;;;;;;3.15;2.75;;;;;21.10;98985.00;;;;2059066;28;20247;-75
2022/02/14 02:19:34;;;;;;;4.20;3.07;;;;;21.10;98974.00;;;;2060216;28;20215;-73
2022/02/14 02:20:34;;;;;;;4.23;3.10;;;;;21.10;98980.00;;;;2058991;28;20253;-73
2022/02/14 02:21:34;;;;;;;4.30;2.53;;;;;21.10;98988.00;;;;2058037;28;20214;-73
2022/02/14 02:22:35;;;;;;;4.13;2.50;;;;;21.10;98968.00;;;;2059099;28;20226;-73
2022/02/14 02:23:38;;;;;;;5.27;2.97;;;;;21.10;98969.00;;;;2059074;28;20288;-74
2022/02/14 02:24:45;;;;;;;4.88;2.80;;;;;21.10;98975.00;;;;2058723;28;20223;-75
2022/02/14 02:25:45;;;;;;;3.97;2.92;;;;;21.10;98972.00;;;;2051130;28;20275;-73
2022/02/14 02:26:46;;;;;;;3.80;2.40;;;;;21.10;98970.00;;;;2058403;28;20207;-73
2022/02/14 02:27:47;;;;;;;3.03;2.65;;;;;21.10;98969.00;;;;2058710;28;20199;-74
2022/02/14 02:28:47;;;;;;;3.33;2.80;;;;;21.10;98973.00;;;;2057942;28;20243;-75
2022/02/14 02:29:48;;;;;;;2.77;2.57;;;;;21.10;98970.00;;;;2066114;28;20229;-74
2022/02/14 02:30:48;;;;;;;3.33;2.30;;;;;21.10;98961.00;;;;2058393;28;20219;-74
2022/02/14 02:31:49;;;;;;;2.80;2.50;;;;;21.10;98966.00;;;;2059170;28;20695;-74
2022/02/14 02:32:49;;;;;;;3.27;2.87;;;;;21.10;98961.00;;;;2059748;28;20238;-74
2022/02/14 02:33:49;;;;;;;2.83;2.53;;;;;21.10;98959.00;;;;2059555;28;20630;-74
2022/02/14 02:34:50;;;;;;;3.33;2.87;;;;;21.10;98962.00;;;;2059728;28;20624;-74
2022/02/14 02:35:50;;;;;;;3.33;2.93;;;;;21.10;98961.00;;;;2059668;28;21901;-74
2022/02/14 02:36:55;;;;;;;4.27;3.13;;;;;21.10;98967.00;;;;2059103;28;20226;-74
2022/02/14 02:37:55;;;;;;;2.67;2.40;;;;;21.10;98968.00;;;;2059041;28;20211;-75
2022/02/14 02:38:56;;;;;;;5.27;2.77;;;;;21.10;98964.00;;;;2059632;28;20570;-75
2022/02/14 02:39:56;;;;;;;4.20;2.90;;;;;21.10;98949.00;;;;2059245;28;20257;-75
2022/02/14 02:40:56;;;;;;;2.50;2.20;;;;;21.10;98957.00;;;;2058224;28;20215;-74
2022/02/14 02:41:58;;;;;;;3.67;2.53;;;;;21.10;98951.00;;;;2058994;28;20221;-74
2022/02/14 02:42:59;;;;;;;5.00;2.70;;;;;21.10;98963.00;;;;2058330;28;20315;-75
2022/02/14 02:43:59;;;;;;;4.35;2.30;;;;;21.00;98964.00;;;;2061784;28;20597;-75
2022/02/14 02:45:00;;;;;;;4.70;2.57;;;;;21.00;98949.00;;;;2058673;28;20217;-75
2022/02/14 02:46:00;;;;;;;3.00;2.30;;;;;21.10;98962.00;;;;2058208;28;20223;-74
2022/02/14 02:47:01;;;;;;;4.23;2.40;;;;;21.10;98953.00;;;;2058221;28;20204;-74
2022/02/14 02:48:01;;;;;;;4.33;2.83;;;;;21.00;98950.00;;;;2059109;28;20212;-74
2022/02/14 02:49:12;;;;;;;3.90;2.60;;;;;21.10;98945.00;;;;2059661;28;20289;-75
2022/02/14 02:50:12;;;;;;;3.65;2.45;;;;;21.00;98932.00;;;;2059664;28;20222;-75
2022/02/14 02:51:13;;;;;;;2.63;2.43;;;;;21.00;98947.00;;;;2058085;28;21026;-74
2022/02/14 02:52:15;;;;;;;4.47;2.63;;;;;21.00;98940.00;;;;2058175;28;20215;-75
2022/02/14 02:53:15;;;;;;;3.65;2.67;;;;;21.00;98933.00;;;;2058902;28;20225;-74
2022/02/14 02:54:16;;;;;;;2.90;2.57;;;;;21.00;98915.00;;;;2058803;28;20246;-74
2022/02/14 02:55:16;;;;;;;4.10;2.70;;;;;21.00;98933.00;;;;2059555;28;20219;-75
2022/02/14 02:56:17;;;;;;;2.93;2.53;;;;;21.00;98940.00;;;;2058743;28;20610;-75
2022/02/14 02:57:17;;;;;;;2.87;2.67;;;;;21.00;98939.00;;;;2058883;28;20294;-75
2022/02/14 02:58:18;;;;;;;3.50;2.90;;;;;21.00;98928.00;;;;2059104;28;20250;-75
2022/02/14 02:59:18;;;;;;;5.00;2.47;;;;;21.00;98916.00;;;;2058933;28;20461;-75
2022/02/14 03:00:19;;;;;;;3.17;2.73;;;;;21.00;98939.00;;;;2053411;28;20219;-71
2022/02/14 03:01:19;;;;;;;4.20;2.80;;;;;21.00;98916.00;;;;2054043;28;20260;-73
2022/02/14 03:02:20;;;;;;;3.97;2.50;;;;;21.00;98931.00;;;;2058483;28;20246;-74
2022/02/14 03:03:20;;;;;;;3.30;2.23;;;;;21.00;98932.00;;;;2058724;28;20223;-74
2022/02/14 03:04:20;;;;;;;3.87;2.10;;;;;21.00;98931.00;;;;2059197;28;20219;-73
2022/02/14 03:05:25;;;;;;;2.63;2.30;;;;;21.00;98930.00;;;;2059028;28;20242;-75
2022/02/14 03:06:25;;;;;;;2.88;2.35;;;;;21.00;98931.00;;;;2058834;28;20215;-73
2022/02/14 03:07:26;;;;;;;2.70;2.47;;;;;21.00;98933.00;;;;2059123;28;20242;-75
2022/02/14 03:08:26;;;;;;;2.83;2.20;;;;;21.00;98926.00;;;;2058934;28;20242;-75
2022/02/14 03:09:26;;;;;;;4.10;2.90;;;;;21.00;98913.00;;;;2060811;28;20640;-75
2022/02/14 03:10:27;;;;;;;2.60;2.37;;;;;21.00;98914.00;;;;2058672;28;20221;-75
2022/02/14 03:11:27;;;;;;;3.57;2.70;;;;;21.00;98918.00;;;;2059358;28;20225;-75
2022/02/14 03:12:27;;;;;;;3.10;2.20;;;;;21.00;98897.00;;;;2058261;28;20218;-74
2022/02/14 03:13:28;;;;;;;3.03;2.53;;;;;21.00;98906.00;;;;2066874;28;20269;-75
2022/02/14 03:14:28;;;;;;;2.57;2.10;;;;;21.00;98908.00;;;;2062472;28;20215;-74
2022/02/14 03:15:28;;;;;;;2.97;2.27;;;;;21.00;98886.00;;;;2059309;28;20226;-74
2022/02/14 03:16:29;;;;;;;2.90;2.47;;;;;21.00;98902.00;;;;2059358;28;20321;-75
2022/02/14 03:17:29;;;;;;;3.67;2.40;;;;;21.00;98898.00;;;;2059289;28;20219;-75
2022/02/14 03:18:29;;;;;;;4.20;2.53;;;;;21.00;98892.00;;;;2058488;28;20223;-75
2022/02/14 03:19:30;;;;;;;3.73;2.20;;;;;21.00;98890.00;;;;2058025;28;20258;-74
2022/02/14 03:20:30;;;;;;;3.30;2.10;;;;;21.00;98898.00;;;;2058052;28;20225;-75
2022/02/14 03:21:30;;;;;;;3.23;2.10;;;;;21.00;98899.00;;;;2058263;28;20222;-75
2022/02/14 03:22:31;;;;;;;3.30;2.27;;;;;21.00;98897.00;;;;2057668;28;20253;-75
2022/02/14 03:23:31;;;;;;;2.93;2.30;;;;;21.00;98897.00;;;;2058380;28;20586;-75
2022/02/14 03:24:32;;;;;;;2.50;2.30;;;;;21.00;98897.00;;;;2058739;28;20581;-75
2022/02/14 03:25:32;;;;;;;3.40;2.20;;;;;21.00;98904.00;;;;2059013;28;20212;-75
2022/02/14 03:26:33;;;;;;;3.00;2.63;;;;;21.00;98892.00;;;;2059321;28;20583;-75
2022/02/14 03:27:33;;;;;;;3.50;2.70;;;;;20.90;98892.00;;;;2058591;28;20208;-75
2022/02/14 03:28:33;;;;;;;3.87;2.60;;;;;21.00;98899.00;;;;2058631;28;20215;-75
2022/02/14 03:29:34;;;;;;;3.67;2.50;;;;;20.90;98894.00;;;;2058186;28;20215;-74
2022/02/14 03:30:34;;;;;;;2.53;2.27;;;;;20.90;98883.00;;;;2057967;28;20717;-75
2022/02/14 03:31:34;;;;;;;3.40;2.27;;;;;20.90;98885.00;;;;2058100;28;20251;-75
2022/02/14 03:32:35;;;;;;;3.17;2.10;;;;;20.90;98893.00;;;;2058309;28;20235;-74
2022/02/14 03:33:35;;;;;;;2.90;2.30;;;;;20.90;98878.00;;;;2059070;28;20282;-75
2022/02/14 03:34:35;;;;;;;5.33;1.93;;;;;20.90;98887.00;;;;2059096;28;20218;-75
2022/02/14 03:35:36;;;;;;;3.80;2.53;;;;;20.90;98881.00;;;;2058927;28;20690;-75
2022/02/14 03:36:36;;;;;;;2.93;2.30;;;;;20.90;98890.00;;;;2059021;28;20290;-75
2022/02/14 03:37:36;;;;;;;3.17;2.60;;;;;20.90;98883.00;;;;2056593;28;20247;-75
2022/02/14 03:38:37;;;;;;;3.77;2.30;;;;;20.90;98882.00;;;;2058566;28;20655;-75
2022/02/14 03:39:37;;;;;;;4.63;2.17;;;;;20.90;98887.00;;;;2059545;28;20313;-75
2022/02/14 03:40:38;;;;;;;3.07;2.27;;;;;20.90;98886.00;;;;2059417;28;20515;-75
2022/02/14 03:41:38;;;;;;;2.60;2.23;;;;;20.90;98903.00;;;;2059335;28;20318;-75
2022/02/14 03:42:39;;;;;;;2.73;2.33;;;;;20.90;98890.00;;;;2059848;28;20212;-75
2022/02/14 03:43:39;;;;;;;4.27;2.80;;;;;20.90;98885.00;;;;2060044;28;20711;-76
2022/02/14 03:44:40;;;;;;;3.37;2.03;;;;;20.90;98901.00;;;;2053410;28;20203;-75
2022/02/14 03:45:40;;;;;;;3.33;2.53;;;;;20.90;98892.00;;;;2059306;28;20214;-75
2022/02/14 03:46:41;;;;;;;2.60;2.07;;;;;20.90;98893.00;;;;2059787;28;20207;-75
2022/02/14 03:47:41;;;;;;;4.27;2.20;;;;;20.90;98885.00;;;;2059601;28;20541;-75
2022/02/14 03:48:42;;;;;;;3.70;2.40;;;;;20.90;98880.00;;;;2059444;28;20219;-75
2022/02/14 03:49:42;;;;;;;3.33;2.10;;;;;20.90;98877.00;;;;2060061;28;20215;-75
2022/02/14 03:50:42;;;;;;;3.13;2.43;;;;;20.90;98867.00;;;;2060753;28;20700;-75
2022/02/14 03:51:43;;;;;;;3.83;2.20;;;;;20.80;98879.00;;;;2060827;28;20675;-75
2022/02/14 03:52:43;;;;;;;2.60;2.27;;;;;20.90;98875.00;;;;2060801;28;20653;-75
2022/02/14 03:53:44;;;;;;;2.50;1.97;;;;;20.90;98867.00;;;;2060846;28;20557;-76
2022/02/14 03:54:44;;;;;;;3.40;2.00;;;;;20.90;98874.00;;;;2059969;28;20211;-74
2022/02/14 03:55:44;;;;;;;3.17;2.30;;;;;20.90;98858.00;;;;2060150;28;20712;-74
2022/02/14 03:56:45;;;;;;;5.10;2.60;;;;;20.90;98861.00;;;;2055180;28;20216;-75
2022/02/14 03:57:47;;;;;;;2.30;2.10;;;;;20.90;98881.00;;;;2054818;28;20740;-75
2022/02/14 03:58:47;;;;;;;2.15;1.90;;;;;20.90;98865.00;;;;2063333;28;20234;-75
2022/02/14 03:59:47;;;;;;;4.67;2.10;;;;;20.90;98864.00;;;;2063609;28;20744;-75
2022/02/14 04:00:48;;;;;;;4.03;2.23;;;;;20.90;98861.00;;;;2061732;28;20578;-74
2022/02/14 04:01:48;;;;;;;3.07;2.37;;;;;20.90;98817.00;;;;2060191;28;20754;-75
2022/02/14 04:02:48;;;;;;;6.47;2.20;;;;;20.90;98882.00;;;;2060786;28;20590;-75
2022/02/14 04:03:49;;;;;;;3.97;2.20;;;;;20.90;98874.00;;;;2060132;28;20239;-76
2022/02/14 04:04:49;;;;;;;3.30;2.27;;;;;20.90;98878.00;;;;2059948;28;20216;-75
2022/02/14 04:05:49;;;;;;;3.73;2.13;;;;;20.90;98886.00;;;;2060712;28;20221;-75
2022/02/14 04:06:50;;;;;;;2.20;2.00;;;;;20.80;98878.00;;;;2060237;28;20582;-75
2022/02/14 04:07:51;;;;;;;2.60;2.00;;;;;20.90;98880.00;;;;2059698;28;20487;-75
2022/02/14 04:08:51;;;;;;;2.87;2.10;;;;;20.80;98876.00;;;;2061996;28;20242;-75
2022/02/14 04:09:51;;;;;;;3.43;2.20;;;;;20.80;98884.00;;;;2058385;28;20265;-75
2022/02/14 04:10:53;;;;;;;4.70;2.10;;;;;20.80;98871.00;;;;2060259;28;20210;-75
2022/02/14 04:11:54;;;;;;;2.30;2.10;;;;;20.80;98875.00;;;;2060306;28;20606;-76
2022/02/14 04:12:54;;;;;;;3.37;2.23;;;;;20.90;98881.00;;;;2062060;28;20234;-76
2022/02/14 04:13:55;;;;;;;2.40;1.80;;;;;20.90;98875.00;;;;2059258;28;20267;-75
2022/02/14 04:14:55;;;;;;;2.00;1.80;;;;;20.80;98880.00;;;;2059584;28;20219;-75
2022/02/14 04:15:55;;;;;;;2.37;1.97;;;;;20.80;98875.00;;;;2060507;28;20226;-75
2022/02/14 04:16:56;;;;;;;4.60;2.20;;;;;20.80;98882.00;;;;2060742;28;20246;-76
2022/02/14 04:17:56;;;;;;;2.23;2.03;;;;;20.80;98875.00;;;;2060682;28;20210;-74
2022/02/14 04:18:56;;;;;;;3.87;2.10;;;;;20.90;98872.00;;;;2060514;28;20227;-75
2022/02/14 04:19:57;;;;;;;3.30;2.30;;;;;20.80;98871.00;;;;2059121;28;20628;-75
2022/02/14 04:20:57;;;;;;;3.40;2.47;;;;;20.80;98883.00;;;;2058705;28;20706;-75
2022/02/14 04:21:57;;;;;;;2.67;2.20;;;;;20.80;98889.00;;;;2059816;28;20219;-76
2022/02/14 04:22:58;;;;;;;6.83;2.17;;;;;20.80;98896.00;;;;2059911;28;20245;-75
2022/02/14 04:23:58;;;;;;;2.80;2.00;;;;;20.80;98890.00;;;;2060444;28;20224;-76
2022/02/14 04:24:58;;;;;;;3.77;2.10;;;;;20.80;98897.00;;;;2060687;28;20235;-76
2022/02/14 04:25:59;;;;;;;4.40;2.57;;;;;20.80;98895.00;;;;2058412;28;20235;-75
2022/02/14 04:26:59;;;;;;;6.43;2.30;;;;;20.80;98886.00;;;;2059990;28;20225;-75
2022/02/14 04:27:59;;;;;;;2.27;1.83;;;;;20.80;98878.00;;;;2059950;28;20215;-74
2022/02/14 04:29:00;;;;;;;2.83;2.03;;;;;20.80;98884.00;;;;2059712;28;20261;-75
2022/02/14 04:30:00;;;;;;;1.70;1.60;;;;;20.80;98879.00;;;;2059804;28;20257;-75
2022/02/14 04:31:00;;;;;;;2.87;1.90;;;;;20.80;98877.00;;;;2059223;28;20226;-74
2022/02/14 04:32:01;;;;;;;2.43;1.90;;;;;20.80;98880.00;;;;2060388;28;20220;-75
2022/02/14 04:33:01;;;;;;;2.67;2.00;;;;;20.80;98875.00;;;;2060614;28;20321;-75
2022/02/14 04:34:01;;;;;;;2.60;2.00;;;;;20.80;98873.00;;;;2060633;28;20224;-75
2022/02/14 04:35:02;;;;;;;4.13;2.20;;;;;20.80;98864.00;;;;2060669;28;20218;-75
2022/02/14 04:36:03;;;;;;;2.93;2.13;;;;;20.80;98869.00;;;;2060779;28;20301;-75
2022/02/14 04:37:03;;;;;;;3.87;2.40;;;;;20.80;98865.00;;;;2059299;28;20222;-70
2022/02/14 04:38:03;;;;;;;1.80;1.60;;;;;20.80;98870.00;;;;2059788;28;20732;-74
2022/02/14 04:39:04;;;;;;;2.23;1.70;;;;;20.80;98865.00;;;;2058780;28;20227;-73
2022/02/14 04:40:05;;;;;;;5.40;2.40;;;;;20.80;98868.00;;;;2059118;28;20282;-74
2022/02/14 04:41:05;;;;;;;2.20;1.80;;;;;20.80;98866.00;;;;2060297;28;20216;-75
2022/02/14 04:42:05;;;;;;;2.73;2.10;;;;;20.80;98865.00;;;;2060525;28;20463;-74
2022/02/14 04:43:06;;;;;;;2.40;1.87;;;;;20.80;98857.00;;;;2060050;28;20298;-75
2022/02/14 04:44:06;;;;;;;3.07;2.10;;;;;20.80;98863.00;;;;2062917;28;20302;-75
2022/02/14 04:45:08;;;;;;;3.20;1.70;;;;;20.80;98857.00;;;;2059222;28;20206;-75
2022/02/14 04:46:08;;;;;;;3.58;2.05;;;;;20.80;98856.00;;;;2059029;28;20219;-75
2022/02/14 04:47:09;;;;;;;3.17;2.00;;;;;20.80;98860.00;;;;2058963;28;20619;-75
2022/02/14 04:48:09;;;;;;;2.37;1.87;;;;;20.50;98855.00;;;;2059151;28;20762;-75
2022/02/14 04:49:09;;;;;;;1.90;1.70;;;;;20.80;98843.00;;;;2059364;28;20723;-75
2022/02/14 04:50:09;;;;;;;2.90;1.67;;;;;20.80;98863.00;;;;2059672;28;20270;-75
2022/02/14 04:51:10;;;;;;;2.43;1.97;;;;;20.80;98864.00;;;;2060056;28;20238;-72
2022/02/14 04:52:10;;;;;;;2.80;2.00;;;;;20.70;98863.00;;;;2059786;28;20211;-75
2022/02/14 04:53:10;;;;;;;5.80;2.20;;;;;20.80;98865.00;;;;2059367;28;20219;-73
2022/02/14 04:54:11;;;;;;;3.47;2.03;;;;;20.80;98873.00;;;;2059473;28;20276;-75
2022/02/14 04:55:11;;;;;;;3.40;2.00;;;;;20.80;98869.00;;;;2059448;28;20326;-74
2022/02/14 04:56:11;;;;;;;1.60;1.40;;;;;20.70;98858.00;;;;2059625;28;20219;-75
2022/02/14 04:57:12;;;;;;;2.80;1.70;;;;;20.80;98865.00;;;;2059500;28;20216;-75
2022/02/14 04:58:12;;;;;;;2.10;1.90;;;;;20.80;98867.00;;;;2060288;28;20215;-75
2022/02/14 04:59:14;;;;;;;3.27;1.90;;;;;20.50;98868.00;;;;2060267;28;20220;-75
2022/02/14 05:00:15;;;;;;;2.80;2.15;;;;;20.70;98869.00;;;;2051395;28;20221;-75
2022/02/14 05:01:15;;;;;;;3.45;1.95;;;;;20.70;98860.00;;;;2057281;28;20211;-75
2022/02/14 05:02:16;;;;;;;2.73;2.10;;;;;20.70;98853.00;;;;2050944;28;20639;-74
2022/02/14 05:03:16;;;;;;;2.20;1.83;;;;;20.70;98866.00;;;;2058697;28;20661;-75
2022/02/14 05:04:20;;;;;;;2.27;1.63;;;;;20.70;98859.00;;;;2059612;28;20718;-75